Time;durP1;ratioP1;P1;durP2;ratioP2;P2;SDS_P1;SDS_P2;PMS_P1;PMS_P2;Temp;Humidity;BMP_temperature;BMP_pressure;BME280_temperature;BME280_humidity;BME280_pressure;Samples;Min_cycle;Max_cycle;Signal;HPM_P1;HPM_P2
2023/07/07 00:02:12;;;;;;;0.55;0.30;;;;;;;17.77;46.35;100609.81;10214142;29;20138;-57
2023/07/07 00:07:14;;;;;;;1.85;0.40;;;;;;;17.68;46.40;100607.56;10220859;28;20057;-57
2023/07/07 00:12:16;;;;;;;2.38;0.43;;;;;;;17.63;46.51;100605.47;10223241;28;20063;-58
2023/07/07 00:17:17;;;;;;;1.48;0.55;;;;;;;17.56;46.79;100608.22;10221141;28;20075;-57
2023/07/07 00:22:19;;;;;;;2.20;0.40;;;;;;;17.47;46.76;100608.69;10220387;28;20106;-57
2023/07/07 00:27:20;;;;;;;1.38;0.80;;;;;;;17.37;47.30;100614.56;10215665;29;20055;-58
2023/07/07 00:32:22;;;;;;;1.17;0.47;;;;;;;17.27;47.16;100606.03;10218370;29;20050;-57
2023/07/07 00:37:24;;;;;;;3.22;0.95;;;;;;;17.23;47.51;100619.19;10220887;28;20049;-58
2023/07/07 00:42:25;;;;;;;1.02;0.30;;;;;;;17.15;47.61;100620.25;10215416;28;20066;-58
2023/07/07 00:47:27;;;;;;;0.50;0.32;;;;;;;17.10;48.09;100620.09;10217291;29;20470;-59
2023/07/07 00:52:29;;;;;;;1.13;0.50;;;;;;;17.08;47.99;100624.91;10220371;28;20055;-58
2023/07/07 00:57:31;;;;;;;1.00;0.47;;;;;;;17.00;48.43;100627.81;10219499;28;20050;-58
2023/07/07 01:02:33;;;;;;;1.73;0.40;;;;;;;16.92;48.36;100623.44;10219273;28;20055;-58
2023/07/07 01:07:40;;;;;;;1.08;0.40;;;;;;;16.85;48.69;100625.34;10224526;28;20071;-58
2023/07/07 01:12:41;;;;;;;5.13;1.47;;;;;;;16.83;48.78;100633.69;10222203;28;20051;-58
2023/07/07 01:18:04;;;;;;;2.33;0.43;;;;;;;16.78;48.49;100635.34;10215719;28;20527;-58
2023/07/07 01:23:27;;;;;;;1.48;0.47;;;;;;;16.71;48.69;100629.91;10215404;29;20055;-58
2023/07/07 01:28:48;;;;;;;2.35;0.40;;;;;;;16.69;48.65;100634.72;10220844;28;20078;-57
2023/07/07 01:33:50;;;;;;;1.70;0.50;;;;;;;16.60;48.92;100634.06;10216189;28;20043;-58
2023/07/07 01:38:51;;;;;;;2.15;0.43;;;;;;;16.57;49.14;100639.13;10215023;28;20126;-57
2023/07/07 01:44:06;;;;;;;0.95;0.68;;;;;;;16.46;49.41;100640.56;10218781;29;20043;-57
2023/07/07 01:49:19;;;;;;;0.75;0.40;;;;;;;16.47;49.46;100647.66;10220546;28;20698;-57
2023/07/07 01:54:21;;;;;;;0.70;0.40;;;;;;;16.43;49.69;100649.94;10215916;28;20071;-57
2023/07/07 01:59:23;;;;;;;1.67;0.70;;;;;;;16.39;49.84;100647.84;10215341;28;20526;-57
2023/07/07 02:04:25;;;;;;;0.68;0.30;;;;;;;16.34;49.97;100643.03;10218365;28;20846;-57
2023/07/07 02:09:26;;;;;;;1.88;0.30;;;;;;;16.26;50.30;100651.38;10215393;29;20055;-58
2023/07/07 02:14:28;;;;;;;0.82;0.35;;;;;;;16.13;50.63;100654.06;10216428;28;20054;-58
2023/07/07 02:19:29;;;;;;;1.60;0.50;;;;;;;16.14;50.46;100653.03;10219395;28;20398;-57
2023/07/07 02:24:31;;;;;;;3.50;0.40;;;;;;;16.09;50.81;100655.50;10219740;29;20062;-58
2023/07/07 02:29:32;;;;;;;0.80;0.50;;;;;;;16.02;50.66;100650.09;10212076;28;20115;-57
2023/07/07 02:34:35;;;;;;;2.70;0.50;;;;;;;15.90;51.00;100657.97;10214215;29;20051;-57
2023/07/07 02:39:36;;;;;;;4.15;0.50;;;;;;;15.87;51.04;100650.22;10217936;28;20062;-57
2023/07/07 02:44:38;;;;;;;1.10;0.60;;;;;;;15.79;51.39;100647.69;10211048;29;20047;-58
2023/07/07 02:49:39;;;;;;;1.00;0.68;;;;;;;15.74;51.44;100656.47;10200139;28;20426;-58
2023/07/07 02:54:41;;;;;;;0.82;0.60;;;;;;;15.71;51.67;100666.81;10220128;28;20058;-58
2023/07/07 02:59:42;;;;;;;1.30;0.60;;;;;;;15.67;51.50;100664.50;10222400;28;20048;-57
2023/07/07 03:04:49;;;;;;;1.20;0.65;;;;;;;15.62;51.85;100669.72;10202204;28;20414;-58
2023/07/07 03:09:51;;;;;;;2.20;0.60;;;;;;;15.60;52.20;100665.50;10214718;28;20044;-58
2023/07/07 03:14:54;;;;;;;2.22;0.47;;;;;;;15.57;52.01;100668.63;10217449;29;20043;-57
2023/07/07 03:19:56;;;;;;;2.05;0.70;;;;;;;15.49;52.45;100666.09;10212404;29;20063;-58
2023/07/07 03:25:00;;;;;;;1.52;0.57;;;;;;;15.46;52.32;100670.03;10213284;28;20051;-57
2023/07/07 03:30:02;;;;;;;2.28;0.40;;;;;;;15.42;52.44;100685.00;10210282;29;20055;-58
2023/07/07 03:35:05;;;;;;;1.42;0.57;;;;;;;15.36;52.61;100683.09;10213270;29;20047;-57
2023/07/07 03:40:07;;;;;;;1.50;0.50;;;;;;;15.37;52.55;100679.38;10214879;29;20059;-57
2023/07/07 03:45:10;;;;;;;2.80;0.60;;;;;;;15.38;52.60;100686.44;10221328;28;20051;-57
2023/07/07 03:50:11;;;;;;;2.35;0.63;;;;;;;15.38;52.63;100695.44;10218197;28;20055;-57
2023/07/07 03:55:12;;;;;;;1.27;0.68;;;;;;;15.39;52.68;100697.09;10225875;28;20124;-57
2023/07/07 04:00:14;;;;;;;2.13;0.63;;;;;;;15.35;52.94;100698.53;10217327;28;20060;-57
2023/07/07 04:05:15;;;;;;;1.65;0.80;;;;;;;15.31;53.10;100691.84;10220524;28;20154;-57
2023/07/07 04:10:17;;;;;;;4.47;0.98;;;;;;;15.33;52.98;100688.94;10224272;28;20063;-56
2023/07/07 04:15:18;;;;;;;2.90;0.57;;;;;;;15.29;53.29;100698.50;10219508;28;20048;-56
2023/07/07 04:20:20;;;;;;;2.15;0.80;;;;;;;15.26;53.42;100703.28;10217905;29;20047;-56
2023/07/07 04:25:22;;;;;;;2.78;1.05;;;;;;;15.26;53.37;100700.56;10217134;29;20047;-56
2023/07/07 04:30:23;;;;;;;2.17;0.60;;;;;;;15.32;53.37;100706.22;10221261;28;20053;-57
2023/07/07 04:35:24;;;;;;;1.45;0.63;;;;;;;15.44;53.13;100707.31;10216815;28;20043;-58
2023/07/07 04:40:29;;;;;;;3.75;0.70;;;;;;;15.45;53.45;100709.00;10217775;28;20050;-56
2023/07/07 04:45:33;;;;;;;3.38;0.60;;;;;;;15.49;53.42;100715.69;10219850;28;20043;-57
2023/07/07 04:50:34;;;;;;;3.13;0.85;;;;;;;15.55;53.59;100714.91;10219615;28;20064;-56
2023/07/07 04:55:41;;;;;;;0.85;0.50;;;;;;;15.57;53.85;100723.66;10212312;28;20170;-56
2023/07/07 05:00:43;;;;;;;1.17;0.82;;;;;;;15.66;53.84;100710.81;10217956;28;20046;-57
2023/07/07 05:05:44;;;;;;;1.02;0.60;;;;;;;15.78;53.69;100717.34;10224902;28;20062;-57
2023/07/07 05:10:47;;;;;;;4.43;0.93;;;;;;;15.92;53.92;100720.97;10219390;28;20419;-57
2023/07/07 05:15:49;;;;;;;3.58;0.63;;;;;;;16.06;53.81;100722.69;10216124;28;20062;-57
2023/07/07 05:20:50;;;;;;;2.75;0.80;;;;;;;16.17;54.05;100736.69;10221102;28;20051;-57
2023/07/07 05:25:52;;;;;;;1.00;0.50;;;;;;;16.27;54.09;100731.72;10216516;28;20620;-57
2023/07/07 05:30:54;;;;;;;1.42;0.55;;;;;;;16.36;53.84;100738.63;10219096;29;20058;-57
2023/07/07 05:35:58;;;;;;;1.83;0.60;;;;;;;16.54;53.87;100735.34;10215723;28;20067;-57
2023/07/07 05:41:00;;;;;;;1.02;0.80;;;;;;;16.72;53.66;100740.16;10217337;29;20055;-56
2023/07/07 05:46:04;;;;;;;1.23;0.55;;;;;;;16.94;53.68;100740.88;10210989;29;20143;-56
2023/07/07 05:51:08;;;;;;;2.67;0.63;;;;;;;17.12;53.84;100742.94;10216685;28;20050;-57
2023/07/07 05:56:13;;;;;;;2.78;0.50;;;;;;;17.35;53.73;100738.94;10221450;29;20090;-57
2023/07/07 06:01:15;;;;;;;3.80;0.50;;;;;;;17.53;53.58;100741.84;10217077;29;20069;-57
2023/07/07 06:06:16;;;;;;;1.13;0.60;;;;;;;17.78;53.25;100738.44;10218018;28;20047;-57
2023/07/07 06:11:18;;;;;;;1.95;0.43;;;;;;;18.00;52.96;100737.13;10216683;28;20054;-57
2023/07/07 06:16:19;;;;;;;2.15;0.52;;;;;;;18.22;52.55;100731.38;10222284;28;20059;-58
2023/07/07 06:21:23;;;;;;;0.75;0.45;;;;;;;18.49;52.24;100725.78;10204760;28;20450;-57
2023/07/07 06:26:25;;;;;;;0.80;0.40;;;;;;;18.73;51.73;100725.00;10193174;28;20059;-57
2023/07/07 06:31:27;;;;;;;1.05;0.47;;;;;;;19.08;51.38;100721.81;10184052;28;20057;-58
2023/07/07 06:36:28;;;;;;;0.88;0.40;;;;;;;19.37;51.20;100717.56;10200588;28;20055;-58
2023/07/07 06:41:30;;;;;;;2.45;0.52;;;;;;;19.69;50.80;100722.03;10214000;29;20059;-57
2023/07/07 06:46:31;;;;;;;0.95;0.50;;;;;;;19.98;49.69;100715.84;10214332;28;20047;-57
2023/07/07 06:51:33;;;;;;;1.48;0.50;;;;;;;20.29;48.39;100726.78;10215675;28;20463;-58
2023/07/07 06:56:34;;;;;;;3.03;0.40;;;;;;;20.56;47.43;100716.31;10210024;29;20061;-58
2023/07/07 07:01:36;;;;;;;1.73;0.90;;;;;;;20.76;46.77;100716.03;10211205;28;20478;-57
2023/07/07 07:06:41;;;;;;;3.03;0.40;;;;;;;21.05;45.59;100718.91;10216549;28;20059;-58
2023/07/07 07:11:42;;;;;;;1.48;0.30;;;;;;;21.29;44.89;100714.31;10198652;28;20066;-58
2023/07/07 07:16:47;;;;;;;2.42;0.32;;;;;;;21.48;44.28;100709.56;10213494;28;20059;-58
2023/07/07 07:21:49;;;;;;;7.28;0.47;;;;;;;21.76;43.80;100711.53;10214536;29;20146;-59
2023/07/07 07:26:50;;;;;;;3.80;0.30;;;;;;;21.94;42.92;100710.56;10225527;28;20051;-58
2023/07/07 07:31:52;;;;;;;4.45;0.70;;;;;;;22.23;42.12;100710.56;10221584;29;20043;-57
2023/07/07 07:36:55;;;;;;;1.02;0.40;;;;;;;22.43;41.56;100708.22;10226412;28;20078;-57
2023/07/07 07:41:57;;;;;;;2.60;0.60;;;;;;;22.64;41.04;100703.13;10227928;28;20063;-59
2023/07/07 07:46:59;;;;;;;0.90;0.35;;;;;;;22.88;40.85;100698.31;10219316;28;20059;-58
2023/07/07 07:52:01;;;;;;;1.80;0.75;;;;;;;23.10;40.50;100707.47;10221071;28;20139;-58
2023/07/07 07:57:02;;;;;;;0.60;0.50;;;;;;;23.38;39.86;100699.38;10222430;28;20419;-58
2023/07/07 08:02:04;;;;;;;0.88;0.47;;;;;;;23.60;39.33;100700.25;10227252;28;20048;-58
2023/07/07 08:07:06;;;;;;;1.00;0.47;;;;;;;23.84;38.83;100703.59;10223060;28;20119;-58
2023/07/07 08:12:09;;;;;;;0.93;0.60;;;;;;;24.10;38.75;100701.16;10219910;28;20415;-59
2023/07/07 08:17:12;;;;;;;1.80;0.52;;;;;;;24.33;37.79;100695.34;10222205;28;20066;-59
2023/07/07 08:22:17;;;;;;;2.65;0.50;;;;;;;24.53;37.61;100697.50;10221140;28;20479;-58
2023/07/07 08:27:21;;;;;;;1.38;0.40;;;;;;;24.80;37.04;100704.03;10212793;29;20507;-58
2023/07/07 08:32:25;;;;;;;;;;;;;;;25.04;37.42;100697.09;10224505;29;20058;-58
2023/07/07 08:37:27;;;;;;;1.50;0.43;;;;;;;25.33;36.69;100694.81;10217837;28;19926;-58
2023/07/07 08:42:32;;;;;;;2.45;0.60;;;;;;;25.62;36.07;100688.13;10221223;28;20057;-58
2023/07/07 08:48:11;;;;;;;0.80;0.30;;;;;;;25.91;35.43;100691.31;10218282;28;20055;-59
2023/07/07 08:53:38;;;;;;;1.42;0.77;;;;;;;26.17;34.60;100689.44;10215761;28;20495;-59
2023/07/07 08:59:18;;;;;;;1.00;0.40;;;;;;;26.37;34.39;100687.84;10217079;28;20047;-59
2023/07/07 09:04:31;;;;;;;8.27;0.60;;;;;;;26.66;33.47;100689.00;10211551;29;20072;-59
2023/07/07 09:09:59;;;;;;;5.93;0.75;;;;;;;26.96;33.55;100689.25;10212271;28;20142;-59
2023/07/07 09:15:07;;;;;;;0.90;0.40;;;;;;;27.18;32.90;100684.25;10211603;28;20066;-59
2023/07/07 09:20:12;;;;;;;2.65;0.40;;;;;;;27.35;31.97;100683.97;10215115;29;20068;-59
2023/07/07 09:25:19;;;;;;;2.75;0.50;;;;;;;27.58;31.64;100688.03;10211635;29;21129;-59
2023/07/07 09:30:37;;;;;;;3.40;0.43;;;;;;;27.78;31.42;100683.53;10209141;28;20090;-59
2023/07/07 09:35:46;;;;;;;1.10;0.50;;;;;;;27.95;30.45;100681.28;10203238;28;20434;-59
2023/07/07 09:41:05;;;;;;;1.65;0.40;;;;;;;28.23;29.94;100668.66;10218725;29;20052;-60
2023/07/07 09:46:09;;;;;;;1.90;0.40;;;;;;;28.35;29.79;100675.78;10211791;28;20070;-59
2023/07/07 09:51:16;;;;;;;4.40;0.60;;;;;;;28.53;29.36;100664.06;10211067;28;20076;-59
2023/07/07 09:56:23;;;;;;;2.55;0.55;;;;;;;28.74;28.99;100661.13;10214267;28;20058;-59
2023/07/07 10:01:29;;;;;;;2.70;0.60;;;;;;;28.92;28.59;100667.88;10220059;28;20138;-59
2023/07/07 10:06:37;;;;;;;4.93;0.60;;;;;;;29.19;27.57;100659.88;10215831;28;20044;-60
2023/07/07 10:11:40;;;;;;;1.42;0.60;;;;;;;29.39;27.79;100649.69;10212780;29;20406;-59
2023/07/07 10:17:09;;;;;;;3.25;0.85;;;;;;;29.61;27.25;100652.75;10195115;28;20170;-60
2023/07/07 10:22:13;;;;;;;1.95;0.60;;;;;;;29.75;26.80;100641.78;10219265;29;20059;-60
2023/07/07 10:27:21;;;;;;;0.82;0.50;;;;;;;29.50;26.43;100642.91;10211697;29;20496;-60
2023/07/07 10:32:23;;;;;;;2.58;0.77;;;;;;;29.75;26.09;100633.47;10214544;28;20058;-70
2023/07/07 10:37:29;;;;;;;1.67;0.77;;;;;;;30.00;25.65;100626.75;10227842;28;20047;-61
2023/07/07 10:42:32;;;;;;;1.50;0.65;;;;;;;30.23;24.90;100629.72;10218099;29;20051;-59
2023/07/07 10:47:36;;;;;;;1.58;0.70;;;;;;;30.03;25.23;100623.34;10223139;28;20077;-61
2023/07/07 10:53:05;;;;;;;3.38;0.70;;;;;;;30.31;24.90;100612.41;10221500;28;20710;-60
2023/07/07 10:58:34;;;;;;;1.42;0.70;;;;;;;30.71;25.12;100620.34;10235048;28;20051;-60
2023/07/07 11:04:10;;;;;;;3.20;0.88;;;;;;;31.11;24.34;100615.22;10229382;28;20531;-60
2023/07/07 11:09:37;;;;;;;3.30;1.00;;;;;;;31.38;24.98;100603.25;10237805;28;20051;-60
2023/07/07 11:15:11;;;;;;;2.85;0.80;;;;;;;31.68;24.83;100607.38;10234503;28;20084;-61
2023/07/07 11:20:47;;;;;;;2.80;1.05;;;;;;;31.81;24.02;100591.78;10222708;28;20060;-60
2023/07/07 11:26:08;;;;;;;4.38;0.90;;;;;;;31.71;24.26;100581.72;10231547;28;20153;-60
2023/07/07 11:31:54;;;;;;;4.30;1.00;;;;;;;32.11;23.38;100579.16;10211907;28;20089;-60
2023/07/07 11:36:58;;;;;;;5.07;1.15;;;;;;;32.44;23.81;100576.09;10219016;28;20112;-60
2023/07/07 11:42:27;;;;;;;11.30;1.33;;;;;;;32.51;23.09;100561.75;10227286;28;20055;-65
2023/07/07 11:47:46;;;;;;;4.05;0.95;;;;;;;32.79;22.62;100566.00;10225126;28;20074;-61
2023/07/07 11:53:02;;;;;;;2.45;1.10;;;;;;;33.05;22.03;100567.25;10225056;28;20043;-64
2023/07/07 11:58:42;;;;;;;3.00;1.33;;;;;;;32.91;22.19;100556.22;10222840;29;20048;-61
2023/07/07 12:03:53;;;;;;;3.70;1.40;;;;;;;32.87;21.67;100547.69;10220424;28;20055;-60
2023/07/07 12:09:03;;;;;;;7.18;2.08;;;;;;;33.25;22.01;100549.16;10220608;29;20043;-59
2023/07/07 12:14:12;;;;;;;2.67;1.30;;;;;;;33.34;21.46;100548.03;10210797;28;20052;-62
2023/07/07 12:19:30;;;;;;;4.28;1.85;;;;;;;33.39;21.14;100541.47;10222486;28;20138;-64
2023/07/07 12:24:38;;;;;;;4.18;1.63;;;;;;;33.52;21.25;100539.69;10219393;28;20051;-64
2023/07/07 12:29:43;;;;;;;3.58;1.92;;;;;;;33.70;20.60;100523.81;10225435;28;20557;-64
2023/07/07 12:35:00;;;;;;;4.50;1.67;;;;;;;33.37;20.33;100525.09;10222585;28;20044;-64
2023/07/07 12:40:15;;;;;;;3.33;1.95;;;;;;;33.64;20.92;100514.78;10220498;28;20375;-64
2023/07/07 12:45:31;;;;;;;3.60;1.90;;;;;;;34.24;20.23;100510.31;10212713;29;20392;-64
2023/07/07 12:50:45;;;;;;;17.02;9.27;;;;;;;34.30;18.66;100514.59;10220174;28;20111;-65
2023/07/07 12:56:04;;;;;;;6.28;4.18;;;;;;;34.16;18.55;100508.38;10218863;28;20040;-64
2023/07/07 13:01:29;;;;;;;7.07;2.95;;;;;;;34.33;18.98;100516.69;10212900;28;20047;-63
2023/07/07 13:06:31;;;;;;;8.00;3.53;;;;;;;34.77;18.48;100516.56;10202963;28;20160;-63
2023/07/07 13:11:35;;;;;;;5.22;3.47;;;;;;;34.53;18.40;100508.75;10211921;29;20046;-64
2023/07/07 13:16:37;;;;;;;5.57;3.53;;;;;;;34.49;18.69;100497.44;10213299;28;20050;-63
2023/07/07 13:21:39;;;;;;;4.60;3.20;;;;;;;35.19;18.56;100502.72;10211421;29;20498;-62
2023/07/07 13:26:41;;;;;;;5.75;3.15;;;;;;;35.21;17.80;100497.63;10220418;28;20082;-63
2023/07/07 13:31:43;;;;;;;6.03;3.67;;;;;;;34.93;17.69;100489.72;10222698;29;20058;-64
2023/07/07 13:36:46;;;;;;;9.85;3.33;;;;;;;35.48;17.54;100485.06;10217140;28;20059;-63
2023/07/07 13:41:48;;;;;;;4.18;3.13;;;;;;;35.87;17.73;100496.94;10214662;29;20043;-63
2023/07/07 13:47:01;;;;;;;5.60;3.00;;;;;;;36.88;17.52;100492.84;10220643;28;20054;-63
2023/07/07 13:52:18;;;;;;;4.82;3.15;;;;;;;37.94;16.69;100484.44;10215825;28;20083;-63
2023/07/07 13:57:29;;;;;;;4.45;2.97;;;;;;;39.33;15.63;100474.25;10217101;28;20067;-61
2023/07/07 14:02:31;;;;;;;5.75;2.90;;;;;;;41.06;14.52;100476.25;10201639;28;20047;-63
2023/07/07 14:07:40;;;;;;;3.50;2.38;;;;;;;41.97;13.56;100468.53;10224488;28;20047;-63
2023/07/07 14:12:42;;;;;;;5.18;2.30;;;;;;;42.53;13.30;100449.69;10181799;28;20156;-63
2023/07/07 14:17:44;;;;;;;2.33;1.90;;;;;;;41.08;14.22;100459.75;10223232;28;20055;-64
2023/07/07 14:22:57;;;;;;;3.47;2.33;;;;;;;39.15;15.47;100452.16;10209727;28;20058;-63
2023/07/07 14:27:59;;;;;;;3.50;2.33;;;;;;;38.33;15.82;100442.53;10225006;28;20142;-63
2023/07/07 14:33:01;;;;;;;3.42;2.40;;;;;;;38.81;16.17;100440.53;10226012;28;20062;-63
2023/07/07 14:38:21;;;;;;;5.22;2.80;;;;;;;40.09;14.87;100428.72;10224138;28;20051;-64
2023/07/07 14:43:25;;;;;;;3.55;2.00;;;;;;;40.82;15.01;100430.38;10213419;28;20112;-64
2023/07/07 14:48:27;;;;;;;3.72;2.13;;;;;;;41.55;14.38;100432.13;10223632;28;20047;-63
2023/07/07 14:53:29;;;;;;;4.68;2.47;;;;;;;41.63;13.97;100418.94;10203718;28;20059;-64
2023/07/07 14:58:33;;;;;;;3.25;2.40;;;;;;;41.47;14.42;100419.13;10207575;29;20066;-64
2023/07/07 15:03:38;;;;;;;;;;;;;;;40.96;15.44;100420.47;10219896;28;20052;-63
2023/07/07 15:08:47;;;;;;;6.63;2.55;;;;;;;40.29;14.49;100407.75;10208022;29;19964;-63
2023/07/07 15:13:49;;;;;;;3.05;2.55;;;;;;;39.51;14.49;100407.13;10218751;29;20051;-63
2023/07/07 15:18:51;;;;;;;4.45;2.50;;;;;;;39.66;14.60;100400.59;10221390;28;20099;-64
2023/07/07 15:23:54;;;;;;;3.55;2.75;;;;;;;39.74;14.26;100398.72;10218466;28;20061;-63
2023/07/07 15:28:56;;;;;;;5.38;3.22;;;;;;;39.31;14.28;100395.03;10202079;28;20048;-63
2023/07/07 15:33:58;;;;;;;6.13;3.00;;;;;;;39.16;14.21;100385.47;10213142;29;20056;-63
2023/07/07 15:39:00;;;;;;;4.15;2.65;;;;;;;39.12;14.30;100384.59;10221114;28;20051;-63
2023/07/07 15:44:01;;;;;;;5.47;3.00;;;;;;;39.49;14.32;100384.97;10209204;28;20062;-64
2023/07/07 15:49:10;;;;;;;3.13;2.67;;;;;;;39.78;13.75;100377.88;10221115;29;20507;-62
2023/07/07 15:54:12;;;;;;;5.43;3.00;;;;;;;40.07;14.38;100377.59;10226044;28;20062;-63
2023/07/07 15:59:19;;;;;;;5.13;3.50;;;;;;;40.12;14.63;100374.47;10220995;28;20055;-64
2023/07/07 16:04:22;;;;;;;5.72;3.30;;;;;;;40.19;14.44;100372.59;10219280;28;20052;-64
2023/07/07 16:09:23;;;;;;;5.10;3.20;;;;;;;40.48;14.08;100377.88;10221094;28;20060;-62
2023/07/07 16:14:26;;;;;;;4.95;3.10;;;;;;;40.78;13.85;100369.47;10225465;28;20483;-63
2023/07/07 16:19:27;;;;;;;5.72;3.22;;;;;;;41.02;13.86;100374.66;10215095;28;20063;-63
2023/07/07 16:24:29;;;;;;;4.47;3.33;;;;;;;40.68;13.31;100375.75;10218310;28;20048;-64
2023/07/07 16:29:30;;;;;;;4.88;3.15;;;;;;;40.92;13.00;100377.31;10221696;28;20047;-63
2023/07/07 16:34:31;;;;;;;4.72;3.03;;;;;;;41.40;12.99;100363.44;10215372;29;20047;-64
2023/07/07 16:39:33;;;;;;;4.45;3.38;;;;;;;41.70;13.13;100365.38;10217400;28;20047;-64
2023/07/07 16:44:34;;;;;;;4.95;3.28;;;;;;;41.77;12.72;100357.78;10217688;29;20063;-64
2023/07/07 16:49:36;;;;;;;5.82;3.67;;;;;;;41.56;13.42;100361.19;10218670;28;20498;-64
2023/07/07 16:54:37;;;;;;;6.47;3.47;;;;;;;41.65;13.12;100360.06;10201827;28;20055;-64
2023/07/07 16:59:38;;;;;;;5.75;3.60;;;;;;;41.75;12.49;100351.72;10223346;28;20059;-64
2023/07/07 17:04:40;;;;;;;5.95;3.97;;;;;;;41.78;12.72;100352.94;10216016;28;20058;-64
2023/07/07 17:09:41;;;;;;;5.22;3.83;;;;;;;41.87;12.92;100350.63;10217315;28;20048;-64
2023/07/07 17:14:43;;;;;;;4.43;3.53;;;;;;;41.38;12.37;100341.25;10212713;28;20051;-64
2023/07/07 17:19:44;;;;;;;5.32;3.85;;;;;;;41.22;12.29;100351.94;10219951;28;20077;-64
2023/07/07 17:24:45;;;;;;;7.95;3.80;;;;;;;41.35;12.29;100356.09;10219021;29;20402;-62
2023/07/07 17:29:47;;;;;;;3.97;3.05;;;;;;;41.41;12.54;100357.41;10216662;29;20102;-62
2023/07/07 17:34:48;;;;;;;5.13;4.18;;;;;;;41.20;12.99;100352.31;10223336;29;20046;-62
2023/07/07 17:39:49;;;;;;;4.70;3.72;;;;;;;41.31;12.54;100343.16;10221744;28;20048;-63
2023/07/07 17:44:51;;;;;;;7.32;3.60;;;;;;;41.55;12.25;100339.81;10215392;29;20087;-63
2023/07/07 17:49:52;;;;;;;5.07;3.63;;;;;;;41.45;12.68;100337.66;10216692;28;20043;-63
2023/07/07 17:54:54;;;;;;;5.43;3.75;;;;;;;41.51;12.63;100329.66;10221473;28;20051;-63
2023/07/07 17:59:56;;;;;;;4.95;3.75;;;;;;;41.53;12.60;100330.91;10216587;28;20055;-63
2023/07/07 18:04:57;;;;;;;6.38;3.60;;;;;;;41.14;12.75;100331.28;10201257;28;20062;-63
2023/07/07 18:09:58;;;;;;;7.00;3.83;;;;;;;40.48;13.60;100327.16;10221907;28;20043;-63
2023/07/07 18:15:00;;;;;;;7.30;4.53;;;;;;;40.10;13.99;100332.59;10218238;28;20056;-63
2023/07/07 18:20:12;;;;;;;7.60;3.83;;;;;;;39.33;14.64;100317.53;10214406;29;20052;-63
2023/07/07 18:25:33;;;;;;;6.70;4.10;;;;;;;38.47;14.59;100324.09;10215589;28;20503;-63
2023/07/07 18:30:54;;;;;;;6.65;4.22;;;;;;;37.58;15.30;100317.03;10219009;28;20063;-63
2023/07/07 18:35:56;;;;;;;5.82;3.92;;;;;;;36.89;16.10;100329.13;10213527;29;20120;-63
2023/07/07 18:40:58;;;;;;;7.55;4.03;;;;;;;36.25;16.77;100327.13;10215582;28;20075;-62
2023/07/07 18:46:00;;;;;;;6.13;3.50;;;;;;;35.65;17.30;100333.06;10212332;28;20059;-63
2023/07/07 18:51:02;;;;;;;5.93;3.83;;;;;;;35.10;18.06;100337.88;10220811;28;20972;-62
2023/07/07 18:56:14;;;;;;;4.05;3.42;;;;;;;34.59;18.34;100330.69;10212714;29;20130;-62
2023/07/07 19:01:23;;;;;;;6.40;4.40;;;;;;;34.12;18.98;100339.94;10216214;29;20461;-63
2023/07/07 19:06:27;;;;;;;7.03;3.95;;;;;;;33.53;20.16;100335.88;10218210;28;20518;-62
2023/07/07 19:11:29;;;;;;;8.20;3.80;;;;;;;33.09;21.05;100342.59;10218505;29;20058;-63
2023/07/07 19:16:30;;;;;;;7.95;4.82;;;;;;;32.71;22.11;100340.44;10212940;29;20059;-62
2023/07/07 19:21:32;;;;;;;8.32;5.55;;;;;;;32.31;22.70;100340.50;10215800;28;20058;-63
2023/07/07 19:26:38;;;;;;;7.43;4.13;;;;;;;31.94;22.86;100335.09;10221867;29;20442;-63
2023/07/07 19:31:39;;;;;;;7.28;4.97;;;;;;;31.50;23.67;100350.72;10219016;28;20043;-63
2023/07/07 19:36:42;;;;;;;6.88;3.58;;;;;;;31.17;24.02;100348.16;10216802;29;20139;-64
2023/07/07 19:41:45;;;;;;;13.45;5.38;;;;;;;30.79;24.73;100345.69;10217295;28;20055;-63
2023/07/07 19:46:47;;;;;;;7.60;4.35;;;;;;;30.30;25.84;100352.81;10225574;29;20609;-63
2023/07/07 19:51:51;;;;;;;6.93;4.13;;;;;;;29.88;25.58;100351.97;10216460;28;20174;-63
2023/07/07 19:56:53;;;;;;;5.85;3.72;;;;;;;29.46;26.57;100356.53;10216122;29;20061;-64
2023/07/07 20:01:54;;;;;;;6.65;3.85;;;;;;;28.95;27.27;100358.13;10219139;29;20416;-62
2023/07/07 20:06:58;;;;;;;7.60;3.90;;;;;;;28.63;27.63;100356.06;10218833;28;20130;-64
2023/07/07 20:12:00;;;;;;;8.65;3.78;;;;;;;28.40;27.90;100360.50;10209240;28;20512;-64
2023/07/07 20:17:01;;;;;;;8.18;4.03;;;;;;;28.07;28.25;100363.09;10220973;28;20051;-63
2023/07/07 20:22:09;;;;;;;9.15;4.55;;;;;;;27.86;28.95;100370.72;10209352;29;20495;-63
2023/07/07 20:27:11;;;;;;;11.80;5.97;;;;;;;27.70;29.73;100368.09;10220192;28;20160;-63
2023/07/07 20:32:14;;;;;;;9.57;4.38;;;;;;;27.42;30.08;100366.97;10216139;28;20047;-63
2023/07/07 20:37:15;;;;;;;10.75;6.30;;;;;;;27.23;30.24;100377.00;10222845;28;20057;-62
2023/07/07 20:42:17;;;;;;;21.10;12.50;;;;;;;27.12;31.33;100378.22;10216538;28;20048;-63
2023/07/07 20:47:20;;;;;;;20.20;11.00;;;;;;;26.96;32.11;100374.72;10214759;29;20059;-63
2023/07/07 20:52:21;;;;;;;18.25;9.75;;;;;;;26.79;32.40;100372.31;10214618;28;20059;-63
2023/07/07 20:57:22;;;;;;;18.00;8.48;;;;;;;26.63;32.51;100377.09;10216210;28;20502;-62
2023/07/07 21:02:24;;;;;;;18.60;10.30;;;;;;;26.46;32.66;100375.47;10215341;29;20499;-63
2023/07/07 21:07:26;;;;;;;18.50;10.07;;;;;;;26.30;33.53;100376.63;10216324;28;20075;-62
2023/07/07 21:12:27;;;;;;;14.38;7.68;;;;;;;26.16;34.16;100373.63;10220295;29;20052;-63
2023/07/07 21:17:29;;;;;;;14.93;6.90;;;;;;;25.99;34.00;100375.84;10213976;28;20055;-63
2023/07/07 21:22:31;;;;;;;10.85;6.10;;;;;;;25.81;34.91;100382.75;10221680;29;20079;-62
2023/07/07 21:27:32;;;;;;;12.88;6.22;;;;;;;25.63;34.89;100387.72;10208655;28;20075;-63
2023/07/07 21:32:34;;;;;;;11.15;5.80;;;;;;;25.48;35.28;100384.97;10217891;29;20058;-61
2023/07/07 21:37:35;;;;;;;11.32;5.95;;;;;;;25.29;35.69;100384.66;10219074;29;20051;-60
2023/07/07 21:42:37;;;;;;;9.60;5.57;;;;;;;25.12;36.55;100399.47;10215333;28;20051;-61
2023/07/07 21:47:39;;;;;;;12.00;5.85;;;;;;;24.99;36.67;100391.75;10222015;28;20055;-61
2023/07/07 21:52:41;;;;;;;7.78;4.75;;;;;;;24.79;37.00;100391.69;10218432;28;20055;-60
2023/07/07 21:57:49;;;;;;;7.30;3.97;;;;;;;24.65;36.93;100389.44;10211585;28;20130;-62
2023/07/07 22:02:58;;;;;;;7.28;4.25;;;;;;;24.50;37.00;100383.84;10219055;28;20502;-61
2023/07/07 22:08:00;;;;;;;10.55;4.43;;;;;;;24.33;37.67;100393.09;10221689;28;20077;-62
2023/07/07 22:13:01;;;;;;;8.70;4.15;;;;;;;24.24;37.57;100397.44;10215934;28;20455;-63
2023/07/07 22:18:10;;;;;;;10.77;4.32;;;;;;;24.07;38.32;100396.78;10220691;28;20054;-62
2023/07/07 22:23:13;;;;;;;7.90;3.72;;;;;;;23.89;38.30;100396.09;10218611;28;20514;-63
2023/07/07 22:28:20;;;;;;;6.55;3.55;;;;;;;23.78;38.60;100405.38;10224224;29;20514;-63
2023/07/07 22:33:23;;;;;;;8.10;4.22;;;;;;;23.70;38.88;100405.84;10216649;29;20406;-63
2023/07/07 22:38:26;;;;;;;7.68;4.07;;;;;;;23.66;39.02;100416.50;10218341;28;20048;-62
2023/07/07 22:43:28;;;;;;;8.93;3.80;;;;;;;23.51;39.37;100417.19;10218446;28;20411;-63
2023/07/07 22:48:29;;;;;;;7.78;3.90;;;;;;;23.31;40.13;100414.25;10214597;29;20533;-62
2023/07/07 22:53:34;;;;;;;7.95;3.45;;;;;;;23.25;39.93;100415.28;10221200;28;20055;-62
2023/07/07 22:58:35;;;;;;;7.60;3.75;;;;;;;23.08;39.95;100416.19;10230412;29;20058;-62
2023/07/07 23:03:37;;;;;;;8.15;3.97;;;;;;;23.02;40.38;100416.38;10237098;28;20059;-63
2023/07/07 23:08:38;;;;;;;7.70;3.83;;;;;;;22.94;40.34;100415.75;10236124;28;20137;-61
2023/07/07 23:13:40;;;;;;;8.30;4.40;;;;;;;22.82;40.84;100422.47;10229521;28;20052;-60
2023/07/07 23:18:43;;;;;;;6.25;3.40;;;;;;;22.72;40.80;100413.00;10232007;28;20091;-61
2023/07/07 23:23:45;;;;;;;4.85;3.25;;;;;;;22.64;41.06;100416.19;10229109;29;20384;-60